Time;durP1;ratioP1;P1;durP2;ratioP2;P2;SDS_P1;SDS_P2;PMS_P1;PMS_P2;Temp;Humidity;BMP_temperature;BMP_pressure;BME280_temperature;BME280_humidity;BME280_pressure;Samples;Min_cycle;Max_cycle;Signal;HPM_P1;HPM_P2
2022/11/21 00:01:27;;;;;;;;;3.00;3.00;;;;;8.63;74.85;100804.94;6125258;23;46192;-81
2022/11/21 00:03:53;;;;;;;;;3.00;2.00;;;;;8.92;74.59;100862.84;6126068;23;45456;-81
2022/11/21 00:06:19;;;;;;;;;6.50;4.00;;;;;8.74;74.47;100832.13;6099789;23;45276;-81
2022/11/21 00:08:45;;;;;;;;;5.25;3.00;;;;;8.95;74.75;100861.09;6099308;23;45395;-80
2022/11/21 00:11:10;;;;;;;;;5.00;5.00;;;;;8.78;74.41;100839.16;6123279;23;47124;-79
2022/11/21 00:13:36;;;;;;;;;4.25;3.25;;;;;8.74;74.75;100829.50;6126460;23;45238;-80
2022/11/21 00:16:06;;;;;;;;;2.75;2.75;;;;;8.75;74.64;100818.13;6100021;23;45270;-80
2022/11/21 00:18:33;;;;;;;;;4.00;2.00;;;;;8.83;74.45;100832.19;6123833;23;45775;-80
2022/11/21 00:21:06;;;;;;;;;3.75;3.50;;;;;8.91;74.88;100847.97;6100104;23;47532;-80
2022/11/21 00:23:32;;;;;;;;;2.75;2.00;;;;;9.00;74.81;100848.88;6129764;23;45449;-80
2022/11/21 00:25:57;;;;;;;;;2.75;2.00;;;;;8.89;74.30;100816.44;6101194;23;45673;-80
2022/11/21 00:28:23;;;;;;;;;6.50;4.00;;;;;8.98;74.49;100833.97;6125956;23;45454;-80
2022/11/21 00:30:48;;;;;;;;;5.00;3.50;;;;;9.02;74.35;100822.63;6124002;23;45289;-80
2022/11/21 00:33:13;;;;;;;;;5.00;3.00;;;;;8.99;74.79;100809.50;6124116;23;45226;-80
2022/11/21 00:35:39;;;;;;;;;2.00;2.00;;;;;9.11;75.00;100821.78;6126544;23;45298;-80
2022/11/21 00:38:04;;;;;;;;;4.50;2.50;;;;;9.01;74.86;100803.38;6099891;23;45412;-80
2022/11/21 00:40:30;;;;;;;;;3.00;3.00;;;;;8.93;74.63;100785.84;6125028;23;45539;-79
2022/11/21 00:42:55;;;;;;;;;4.00;4.00;;;;;9.09;74.41;100813.00;6098522;23;45159;-80
2022/11/21 00:45:20;;;;;;;;;5.75;4.00;;;;;9.10;74.52;100806.91;6125707;23;45174;-81
2022/11/21 00:47:46;;;;;;;;;5.50;3.25;;;;;9.18;74.61;100810.44;6126170;23;45316;-81
2022/11/21 00:50:11;;;;;;;;;6.50;4.50;;;;;9.17;74.91;100801.69;6097789;23;47254;-80
2022/11/21 00:52:37;;;;;;;;;3.00;3.00;;;;;9.19;74.20;100796.41;6098459;23;45280;-81
2022/11/21 00:55:02;;;;;;;;;4.00;2.25;;;;;8.99;74.52;100763.09;6122525;23;45287;-80
2022/11/21 00:57:28;;;;;;;;;5.50;4.50;;;;;9.03;74.68;100763.97;6124981;23;45524;-81
2022/11/21 00:59:53;;;;;;;;;5.50;4.75;;;;;9.10;74.51;100781.50;6098740;23;48086;-82
2022/11/21 01:02:18;;;;;;;;;6.50;4.00;;;;;9.12;74.36;100782.41;6100188;23;45303;-85
2022/11/21 01:04:44;;;;;;;;;4.50;4.50;;;;;9.09;74.36;100782.41;6125800;23;45399;-80
2022/11/21 01:07:12;;;;;;;;;4.00;4.00;;;;;9.09;74.65;100763.13;6127228;23;45250;-87
2022/11/21 01:09:37;;;;;;;;;5.25;4.00;;;;;9.23;74.69;100782.44;6096771;23;48356;-80
2022/11/21 01:12:03;;;;;;;;;6.00;4.00;;;;;9.22;74.27;100786.81;6096227;23;45749;-80
2022/11/21 01:14:28;;;;;;;;;9.25;4.25;;;;;9.22;74.64;100771.06;6125471;23;45201;-81
2022/11/21 01:16:54;;;;;;;;;9.00;4.75;;;;;9.16;74.72;100754.38;6097970;23;45436;-80
2022/11/21 01:19:19;;;;;;;;;2.00;2.00;;;;;8.96;74.68;100728.09;6124795;23;46255;-80
2022/11/21 01:21:45;;;;;;;;;5.00;5.00;;;;;9.21;74.83;100760.53;6098460;23;45270;-80
2022/11/21 01:24:11;;;;;;;;;7.00;4.00;;;;;8.97;74.86;100724.59;6099618;23;45320;-81
2022/11/21 01:26:37;;;;;;;;;6.00;4.25;;;;;9.12;75.00;100737.75;6098511;23;45429;-80
2022/11/21 01:29:03;;;;;;;;;5.00;4.00;;;;;9.24;74.60;100771.91;6099207;23;48083;-81
2022/11/21 01:31:29;;;;;;;;;5.25;5.25;;;;;9.11;74.89;100754.38;6125888;23;45407;-80
2022/11/21 01:33:57;;;;;;;;;5.00;4.00;;;;;9.04;74.75;100729.84;6098910;23;45403;-80
2022/11/21 01:36:26;;;;;;;;;3.00;3.00;;;;;9.18;75.03;100756.16;6097565;23;45420;-81
2022/11/21 01:38:54;;;;;;;;;5.25;4.00;;;;;9.06;74.59;100737.72;6098295;23;47194;-80
2022/11/21 01:41:27;;;;;;;;;3.50;3.00;;;;;8.98;74.90;100724.59;6124977;23;45195;-81
2022/11/21 01:43:53;;;;;;;;;5.00;4.00;;;;;8.88;74.98;100704.44;6125525;23;45202;-81
2022/11/21 01:46:20;;;;;;;;;2.00;2.00;;;;;8.95;75.17;100714.06;6098090;23;45555;-80
2022/11/21 01:49:16;;;;;;;;;3.00;2.00;;;;;9.11;75.19;100735.97;6124930;23;45334;-80
2022/11/21 01:52:03;;;;;;;;;4.50;2.75;;;;;8.97;74.95;100709.69;6124741;23;45469;-81
2022/11/21 01:54:34;;;;;;;;;2.00;2.00;;;;;9.12;75.29;100729.00;6099898;23;45452;-80
2022/11/21 01:56:59;;;;;;;;;3.50;2.50;;;;;9.07;75.26;100709.72;6099994;23;45653;-80
2022/11/21 02:00:11;;;;;;;;;7.00;4.25;;;;;9.12;75.38;100718.50;6126466;23;46063;-80
2022/11/21 02:02:45;;;;;;;;;2.00;2.00;;;;;9.11;75.33;100712.34;6099470;23;45791;-80
2022/11/21 02:05:15;;;;;;;;;3.00;3.00;;;;;9.03;75.18;100700.97;6126486;23;45645;-81
2022/11/21 02:07:44;;;;;;;;;3.75;3.00;;;;;8.80;75.39;100656.28;6100321;23;45452;-80
2022/11/21 02:10:11;;;;;;;;;3.00;3.00;;;;;9.12;75.33;100713.25;6099285;23;47948;-80
2022/11/21 02:12:42;;;;;;;;;4.00;2.75;;;;;8.96;75.17;100679.06;6125941;23;45375;-80
2022/11/21 02:15:08;;;;;;;;;6.00;4.00;;;;;9.14;75.33;100703.59;6099781;23;45490;-80
2022/11/21 02:17:33;;;;;;;;;2.75;2.50;;;;;9.07;74.97;100692.22;6099789;23;45512;-81
2022/11/21 02:20:02;;;;;;;;;2.50;2.50;;;;;9.02;75.13;100676.44;6100121;23;47222;-81
2022/11/21 02:23:06;;;;;;;;;3.50;2.00;;;;;9.20;75.16;100694.00;6125846;23;45303;-80
2022/11/21 02:25:40;;;;;;;;;2.50;2.50;;;;;9.02;75.23;100662.44;5982322;23;45349;-82
2022/11/21 02:28:11;;;;;;;;;9.00;3.25;;;;;9.10;75.16;100670.34;6107617;23;45231;-80
2022/11/21 02:30:39;;;;;;;;;2.25;2.00;;;;;9.24;75.10;100681.72;6125915;23;45452;-79
2022/11/21 02:33:05;;;;;;;;;3.50;3.50;;;;;9.03;74.99;100644.09;6126428;23;45421;-80
2022/11/21 02:35:32;;;;;;;;;4.25;3.25;;;;;9.12;75.02;100650.22;6099583;23;45452;-80
2022/11/21 02:38:02;;;;;;;;;3.50;2.75;;;;;9.12;75.19;100663.34;6126358;23;45211;-80
2022/11/21 02:40:35;;;;;;;;;4.50;4.25;;;;;9.02;75.14;100642.31;6126064;23;45561;-81
2022/11/21 02:43:09;;;;;;;;;4.00;3.00;;;;;8.95;74.93;100639.69;6099512;23;45518;-81
2022/11/21 02:45:43;;;;;;;;;7.75;3.00;;;;;9.20;74.90;100669.47;6099315;23;45513;-81
2022/11/21 02:48:09;;;;;;;;;4.00;3.25;;;;;9.10;74.88;100641.47;6125920;23;45416;-80
2022/11/21 02:50:37;;;;;;;;;2.25;2.00;;;;;9.25;74.83;100660.72;6126122;23;45299;-80
2022/11/21 02:53:04;;;;;;;;;3.75;3.00;;;;;9.16;74.83;100639.69;6099630;23;45750;-81
2022/11/21 02:55:30;;;;;;;;;4.00;3.00;;;;;9.26;75.01;100651.97;6099810;23;45315;-80
2022/11/21 02:57:56;;;;;;;;;2.50;2.50;;;;;9.25;74.68;100646.72;6097546;23;45480;-80
2022/11/21 03:00:22;;;;;;;;;4.50;3.00;;;;;9.32;74.83;100651.09;6099610;23;45874;-80
2022/11/21 03:02:47;;;;;;;;;1.25;1.00;;;;;9.23;74.75;100637.97;6126332;23;45316;-81
2022/11/21 03:05:15;;;;;;;;;5.25;2.00;;;;;9.25;74.67;100633.59;6122647;23;45367;-80
2022/11/21 03:07:41;;;;;;;;;5.25;3.50;;;;;9.31;74.74;100658.97;6126092;23;45243;-80
2022/11/21 03:10:07;;;;;;;;;4.75;4.75;;;;;9.23;74.55;100644.09;6098692;23;47798;-80
2022/11/21 03:12:37;;;;;;;;;3.00;2.00;;;;;9.11;74.42;100623.06;6126761;23;45371;-81
2022/11/21 03:15:04;;;;;;;;;3.00;3.00;;;;;9.27;74.51;100647.56;6099839;23;45347;-80
2022/11/21 03:17:30;;;;;;;;;3.25;2.25;;;;;9.23;74.61;100636.22;6098656;23;45507;-80
2022/11/21 03:19:55;;;;;;;;;1.75;1.75;;;;;9.14;74.58;100607.31;6125756;23;46329;-80
2022/11/21 03:22:21;;;;;;;;;7.50;4.25;;;;;8.99;74.63;100573.19;6099127;23;45373;-81
2022/11/21 03:24:46;;;;;;;;;5.00;1.50;;;;;9.26;74.49;100619.56;6100333;23;45278;-81
2022/11/21 03:27:11;;;;;;;;;3.00;2.50;;;;;9.26;74.59;100609.06;6099388;23;45672;-81
2022/11/21 03:29:37;;;;;;;;;3.00;3.00;;;;;9.27;74.68;100610.78;6099269;23;47152;-80
2022/11/21 03:32:03;;;;;;;;;3.25;2.25;;;;;8.92;74.58;100537.28;6124013;23;45571;-80
2022/11/21 03:34:28;;;;;;;;;2.50;2.00;;;;;9.20;74.44;100585.44;6126668;23;45300;-80
2022/11/21 03:36:54;;;;;;;;;3.75;3.75;;;;;9.26;74.50;100598.56;6126131;23;45545;-80
2022/11/21 03:39:19;;;;;;;;;4.00;1.75;;;;;9.00;74.47;100551.28;6099309;23;47018;-80
2022/11/21 03:41:44;;;;;;;;;5.25;4.25;;;;;9.27;74.54;100589.78;6097330;23;45294;-81
2022/11/21 03:44:11;;;;;;;;;4.75;4.50;;;;;9.25;74.22;100581.06;6099401;23;45478;-81
2022/11/21 03:46:42;;;;;;;;;5.50;3.75;;;;;9.09;74.50;100551.31;6127487;23;45224;-81
2022/11/21 03:49:08;;;;;;;;;5.00;2.75;;;;;9.15;74.53;100556.53;6100851;23;47388;-81
2022/11/21 03:51:35;;;;;;;;;6.50;5.25;;;;;9.16;74.94;100554.78;6100719;23;45252;-80
2022/11/21 03:54:00;;;;;;;;;5.00;3.00;;;;;9.13;74.57;100550.41;6100478;23;45244;-80
2022/11/21 03:56:26;;;;;;;;;12.25;7.00;;;;;9.09;74.62;100546.06;6123709;23;45492;-81
2022/11/21 03:58:52;;;;;;;;;7.50;3.00;;;;;9.09;74.77;100535.53;6125218;23;46065;-80
2022/11/21 04:01:19;;;;;;;;;4.50;2.50;;;;;9.10;74.40;100544.28;6108878;23;45403;-80
2022/11/21 04:03:45;;;;;;;;;8.25;4.25;;;;;9.12;74.78;100542.53;6127498;23;45377;-80
2022/11/21 04:06:12;;;;;;;;;2.00;2.00;;;;;8.98;74.65;100521.53;6100902;23;45302;-80
2022/11/21 04:08:38;;;;;;;;;3.50;3.50;;;;;8.82;74.67;100481.28;6100840;23;47580;-80
2022/11/21 04:11:03;;;;;;;;;5.50;4.00;;;;;9.02;74.89;100508.41;6100819;23;45636;-80
2022/11/21 04:13:29;;;;;;;;;6.25;3.50;;;;;8.90;74.63;100486.53;6101051;23;45220;-80
2022/11/21 04:15:54;;;;;;;;;3.50;3.00;;;;;8.99;74.79;100499.66;6127182;23;45417;-79
2022/11/21 04:18:20;;;;;;;;;6.00;2.50;;;;;8.98;74.60;100496.16;6100333;23;46188;-80
2022/11/21 04:20:45;;;;;;;;;6.50;4.25;;;;;8.83;75.15;100464.69;6127828;23;45190;-81
2022/11/21 04:23:11;;;;;;;;;4.00;4.00;;;;;8.81;74.79;100455.94;6127593;23;45139;-79
2022/11/21 04:25:36;;;;;;;;;5.25;4.00;;;;;8.79;74.80;100457.66;6125873;23;45361;-81
2022/11/21 04:28:03;;;;;;;;;7.25;4.00;;;;;8.81;74.98;100453.31;6100040;23;46679;-81
2022/11/21 04:30:29;;;;;;;;;8.25;4.75;;;;;8.77;74.81;100452.44;6100790;23;45338;-80
2022/11/21 04:32:55;;;;;;;;;8.50;5.75;;;;;8.84;74.74;100469.03;6100706;23;45366;-80
2022/11/21 04:35:23;;;;;;;;;8.25;4.75;;;;;8.63;74.92;100424.44;6127331;23;45511;-80
2022/11/21 04:37:49;;;;;;;;;6.00;3.00;;;;;8.64;75.04;100418.34;6127255;23;46035;-80
2022/11/21 04:40:15;;;;;;;;;10.25;5.00;;;;;8.58;75.18;100406.97;6127063;23;45172;-80
2022/11/21 04:42:42;;;;;;;;;8.75;5.75;;;;;8.72;74.92;100432.34;6127124;23;45431;-79
2022/11/21 04:45:08;;;;;;;;;3.00;1.25;;;;;8.94;75.23;100470.78;6099510;23;45389;-80
2022/11/21 04:47:43;;;;;;;;;9.75;4.75;;;;;8.78;75.14;100434.94;6100537;23;48547;-79
2022/11/21 04:50:10;;;;;;;;;4.50;3.00;;;;;8.75;75.15;100427.06;6100596;23;45196;-80
2022/11/21 04:52:36;;;;;;;;;5.75;3.75;;;;;8.71;75.25;100413.06;6100815;23;45410;-80
2022/11/21 04:55:03;;;;;;;;;7.75;5.75;;;;;8.71;75.36;100407.81;6127237;23;45222;-80
2022/11/21 04:57:29;;;;;;;;;5.00;5.00;;;;;8.72;75.21;100414.81;6100021;23;47524;-80
2022/11/21 04:59:55;;;;;;;;;5.75;3.50;;;;;8.76;75.27;100421.81;6125066;23;45731;-81
2022/11/21 05:02:24;;;;;;;;;5.50;5.00;;;;;8.79;75.05;100421.81;6124953;23;45324;-80
2022/11/21 05:04:50;;;;;;;;;4.75;4.00;;;;;8.65;75.25;100383.34;6127176;23;45183;-80
2022/11/21 05:07:16;;;;;;;;;9.00;5.00;;;;;8.89;75.74;100421.78;6127160;23;46235;-80
2022/11/21 05:09:41;;;;;;;;;7.25;5.75;;;;;8.60;75.53;100367.59;6100768;23;45393;-81
2022/11/21 05:14:55;;;;;;;;;4.00;4.00;;;;;8.85;75.01;100410.44;6126966;23;45179;-80
2022/11/21 05:17:21;;;;;;;;;6.25;4.25;;;;;8.72;75.19;100383.34;6124980;23;48035;-80
2022/11/21 05:19:47;;;;;;;;;9.50;6.25;;;;;8.49;75.20;100344.00;6100601;23;45235;-80
2022/11/21 05:22:12;;;;;;;;;9.25;4.25;;;;;8.69;75.25;100387.72;6100718;23;45428;-80
2022/11/21 05:24:38;;;;;;;;;7.25;4.00;;;;;8.66;75.42;100377.22;6127134;23;45193;-80
2022/11/21 05:27:04;;;;;;;;;12.50;10.00;;;;;8.70;75.40;100384.22;6099131;23;46689;-80
2022/11/21 05:29:29;;;;;;;;;6.75;4.50;;;;;8.58;75.27;100366.72;6100713;23;45413;-81
2022/11/21 05:31:55;;;;;;;;;11.25;9.00;;;;;8.50;75.38;100353.66;6125562;23;45395;-80
2022/11/21 05:34:20;;;;;;;;;11.75;8.00;;;;;8.61;75.29;100379.88;6126759;23;45360;-80
2022/11/21 05:36:46;;;;;;;;;5.00;4.25;;;;;8.65;75.55;100389.47;6127309;23;45316;-80
2022/11/21 05:39:11;;;;;;;;;7.25;5.25;;;;;8.63;75.48;100385.09;6100517;23;45346;-80
2022/11/21 05:41:39;;;;;;;;;8.75;5.75;;;;;8.58;75.56;100378.13;6129082;23;45289;-80
2022/11/21 05:44:04;;;;;;;;;7.75;3.00;;;;;8.69;75.39;100396.47;6131157;23;45134;-80
2022/11/21 05:46:30;;;;;;;;;7.75;7.25;;;;;8.66;75.47;100382.47;6100115;23;46739;-80
2022/11/21 05:48:55;;;;;;;;;8.00;7.00;;;;;8.79;75.87;100395.56;6126727;23;45164;-80
2022/11/21 05:51:21;;;;;;;;;11.00;9.50;;;;;8.83;75.64;100375.44;6124951;23;45231;-79
2022/11/21 05:53:47;;;;;;;;;6.25;6.25;;;;;8.60;75.71;100328.25;6100747;23;45504;-80
2022/11/21 05:56:15;;;;;;;;;8.50;7.75;;;;;8.61;75.74;100327.38;6099611;23;47212;-80
2022/11/21 05:58:41;;;;;;;;;4.75;4.75;;;;;8.57;75.83;100312.50;6126052;23;45403;-80
2022/11/21 06:01:09;;;;;;;;;7.75;5.50;;;;;8.82;75.49;100340.44;6100624;23;45413;-79
2022/11/21 06:03:37;;;;;;;;;12.00;9.25;;;;;8.55;75.27;100286.31;6099183;23;45181;-80
2022/11/21 06:06:10;;;;;;;;;6.50;5.50;;;;;8.95;75.30;100346.50;6125894;23;45282;-80
2022/11/21 06:08:39;;;;;;;;;10.75;6.75;;;;;8.78;75.70;100314.22;6126404;23;45192;-80
2022/11/21 06:11:06;;;;;;;;;7.00;5.75;;;;;8.81;75.18;100303.69;6100118;23;45300;-79
2022/11/21 06:13:32;;;;;;;;;6.25;4.75;;;;;8.95;75.13;100325.50;6125966;23;45275;-80
2022/11/21 06:16:05;;;;;;;;;7.75;6.25;;;;;8.93;75.56;100308.91;6099714;23;47799;-80
2022/11/21 06:18:37;;;;;;;;;10.00;6.00;;;;;8.60;75.18;100239.91;6099816;23;45315;-80
2022/11/21 06:21:07;;;;;;;;;8.50;7.50;;;;;8.70;75.28;100256.50;6126633;23;45159;-80
2022/11/21 06:23:34;;;;;;;;;9.50;7.75;;;;;8.94;75.72;100309.78;6099406;23;45458;-80
2022/11/21 06:26:02;;;;;;;;;8.25;4.50;;;;;8.92;75.54;100294.00;6125723;23;46350;-79
2022/11/21 06:28:36;;;;;;;;;11.50;8.50;;;;;8.65;75.64;100231.16;6099343;23;45680;-80
2022/11/21 06:31:03;;;;;;;;;6.50;5.25;;;;;8.83;75.49;100259.94;6099686;23;45193;-80
2022/11/21 06:33:28;;;;;;;;;8.75;6.75;;;;;8.89;75.53;100266.91;6125993;23;45177;-80
2022/11/21 06:35:54;;;;;;;;;11.75;11.75;;;;;8.87;75.52;100269.53;6125865;23;46334;-80
2022/11/21 06:38:19;;;;;;;;;12.00;7.00;;;;;8.94;75.39;100267.78;6124158;23;45582;-79
2022/11/21 06:40:44;;;;;;;;;7.25;7.25;;;;;9.10;75.03;100302.69;6101590;23;45391;-80
2022/11/21 06:43:10;;;;;;;;;10.25;8.00;;;;;8.97;75.27;100265.13;6100919;23;45378;-80
2022/11/21 06:45:35;;;;;;;;;8.25;8.00;;;;;9.04;75.01;100275.59;6127913;23;45458;-80
2022/11/21 06:48:02;;;;;;;;;7.50;6.00;;;;;8.99;75.22;100266.88;6127329;23;45290;-79
2022/11/21 06:50:30;;;;;;;;;10.00;9.00;;;;;9.09;75.16;100277.31;6126023;23;45322;-80
2022/11/21 06:52:57;;;;;;;;;9.00;8.00;;;;;8.94;75.07;100247.63;6125743;23;45397;-79
2022/11/21 06:55:24;;;;;;;;;10.50;8.00;;;;;8.93;75.02;100234.53;6128180;23;45349;-79
2022/11/21 06:57:49;;;;;;;;;9.00;7.50;;;;;8.94;74.96;100218.75;6126273;23;45226;-79
2022/11/21 07:00:28;;;;;;;;;;;;;;;;;;;;;
2022/11/21 07:03:23;;;;;;;;;;;;;;;;;;;;;
2022/11/21 07:06:07;;;;;;;;;;;;;;;;;;;;;
2022/11/21 07:08:34;;;;;;;;;14.00;10.50;;;;;9.02;74.92;100188.06;6126252;23;71443;-81
2022/11/21 07:11:19;;;;;;;;;;;;;;;;;;;;;
2022/11/21 07:13:55;;;;;;;;;;;;;;;;;;;;;
2022/11/21 07:16:31;;;;;;;;;;;;;;;;;;;;;
2022/11/21 07:19:07;;;;;;;;;;;;;;;;;;;;;
2022/11/21 07:21:41;;;;;;;;;11.75;9.00;;;;;8.91;75.20;100147.91;6125718;23;68831;-78
2022/11/21 07:24:17;;;;;;;;;;;;;;;;;;;;;
2022/11/21 07:26:52;;;;;;;;;;;;;;;;;;;;;
2022/11/21 07:29:28;;;;;;;;;;;;;;;;;;;;;
2022/11/21 07:32:56;;;;;;;;;14.25;10.75;;;;;9.02;75.52;100135.56;6126206;23;68529;-80
2022/11/21 07:35:02;;;;;;;;;10.00;10.00;;;;;8.92;75.39;100118.13;6119557;23;45293;-87
2022/11/21 07:37:38;;;;;;;;;;;;;;;;;;;;;
2022/11/21 07:40:04;;;;;;;;;11.75;10.00;;;;;8.82;75.43;100090.22;6126115;23;72297;-81
2022/11/21 07:42:42;;;;;;;;;;;;;;;;;;;;;
2022/11/21 07:45:15;;;;;;;;;12.00;12.00;;;;;8.81;75.25;100072.72;6125803;23;71992;-82
2022/11/21 07:47:41;;;;;;;;;10.50;8.75;;;;;9.07;75.28;100090.03;6126427;23;45324;-82
2022/11/21 07:50:08;;;;;;;;;13.50;12.75;;;;;9.01;74.94;100073.44;6124753;23;45226;-83
2022/11/21 07:52:36;;;;;;;;;12.75;10.00;;;;;9.12;74.89;100086.50;6100790;23;45503;-83
2022/11/21 07:55:13;;;;;;;;;;;;;;;;;;;;;
2022/11/21 07:57:39;;;;;;;;;14.75;12.00;;;;;9.03;74.72;100071.69;6124771;23;75217;-82
2022/11/21 08:00:12;;;;;;;;;16.00;13.00;;;;;8.98;74.61;100049.84;6100590;23;45818;-82
2022/11/21 08:02:40;;;;;;;;;12.25;12.25;;;;;8.86;74.57;100004.47;6127071;23;45433;-82
2022/11/21 08:05:08;;;;;;;;;16.00;13.25;;;;;8.96;74.59;100011.38;6100268;23;45386;-80
2022/11/21 08:07:33;;;;;;;;;17.00;12.25;;;;;8.97;74.67;100015.72;6100247;23;47069;-81
2022/11/21 08:09:59;;;;;;;;;13.50;12.25;;;;;8.81;74.85;99999.25;6127132;23;45468;-80
2022/11/21 08:12:34;;;;;;;;;;;;;;;;;;;;;
2022/11/21 08:15:09;;;;;;;;;;;;;;;;;;;;;
2022/11/21 08:17:45;;;;;;;;;;;;;;;;;;;;;
2022/11/21 08:20:21;;;;;;;;;;;;;;;;;;;;;
2022/11/21 08:22:54;;;;;;;;;15.25;13.25;;;;;9.02;74.20;100050.69;6126240;23;67984;-88
2022/11/21 08:29:26;;;;;;;;;;;;;;;;;;;;;
2022/11/21 08:36:17;;;;;;;;;;;;;;;;;;;;;
2022/11/21 09:11:37;;;;;;;;;;;;;;;;;;;;;
2022/11/21 09:48:59;;;;;;;;;;;;;;;;;;;;;
2022/11/21 09:52:15;;;;;;;;;;;;;;;;;;;;;
2022/11/21 09:59:11;;;;;;;;;;;;;;;;;;;;;
2022/11/21 10:05:45;;;;;;;;;;;;;;;;;;;;;
2022/11/21 10:08:11;;;;;;;;;11.25;11.25;;;;;9.33;73.32;99750.97;5782808;24;45455;-82
2022/11/21 10:10:57;;;;;;;;;13.75;12.50;;;;;9.48;73.11;99770.00;5953483;23;45282;-82
2022/11/21 10:13:35;;;;;;;;;14.25;12.50;;;;;9.60;73.01;99789.97;5952189;23;45749;-83
2022/11/21 10:16:33;;;;;;;;;10.75;8.75;;;;;9.54;72.68;99770.78;6123926;23;46230;-83
2022/11/21 10:19:24;;;;;;;;;13.00;11.00;;;;;9.58;72.87;99761.97;6059838;23;45524;-78
2022/11/21 10:22:04;;;;;;;;;9.50;9.00;;;;;9.60;72.88;99758.44;6125592;23;45360;-77
2022/11/21 10:24:47;;;;;;;;;11.25;10.00;;;;;9.58;73.07;99749.72;6125793;23;45416;-81
2022/11/21 10:27:36;;;;;;;;;17.50;10.25;;;;;9.39;72.77;99701.84;6097426;23;47007;-79
2022/11/21 10:30:06;;;;;;;;;14.25;12.00;;;;;9.64;73.39;99732.97;6097597;23;45341;-78
2022/11/21 10:33:03;;;;;;;;;11.25;9.25;;;;;9.62;72.53;99718.97;6124060;23;45351;-81
2022/11/21 10:35:39;;;;;;;;;8.50;7.25;;;;;9.62;72.82;99719.88;6124404;23;45246;-80
2022/11/21 10:38:22;;;;;;;;;6.75;5.00;;;;;9.67;72.65;99715.38;6126129;23;46613;-80
2022/11/21 10:41:00;;;;;;;;;12.00;10.00;;;;;9.75;72.63;99717.03;6126097;23;45224;-83
2022/11/21 10:46:24;;;;;;;;;11.50;10.50;;;;;9.61;72.39;99659.44;6125472;23;45247;-79
2022/11/21 10:48:56;;;;;;;;;10.50;10.25;;;;;9.71;72.14;99664.53;6097064;23;47099;-77
2022/11/21 10:51:32;;;;;;;;;11.00;8.50;;;;;9.65;72.04;99663.75;6125053;23;45417;-80
2022/11/21 10:57:28;;;;;;;;;8.25;5.75;;;;;9.30;71.63;99593.44;6125475;23;45474;-80
2022/11/21 11:00:35;;;;;;;;;8.75;8.00;;;;;9.34;71.76;99600.38;6126095;23;45453;-79
2022/11/21 11:06:28;;;;;;;;;4.50;2.75;;;;;9.46;71.70;99624.69;6007089;23;45225;-81
2022/11/21 11:09:06;;;;;;;;;10.25;10.25;;;;;9.31;71.61;99601.28;6085354;23;45203;-86
2022/11/21 11:11:32;;;;;;;;;9.50;6.00;;;;;9.62;71.67;99663.81;6093598;23;47067;-84
2022/11/21 11:14:04;;;;;;;;;10.25;8.50;;;;;9.57;71.50;99656.03;6094764;23;45215;-82
2022/11/21 11:17:03;;;;;;;;;9.25;6.50;;;;;9.65;71.33;99647.97;6094798;23;45244;-90
2022/11/21 11:35:39;;;;;;;;;8.00;7.50;;;;;9.60;71.39;99584.16;6134514;22;47205;-82
2022/11/21 11:38:11;;;;;;;;;10.50;6.00;;;;;9.66;71.71;99577.00;6185120;23;45208;-82
2022/11/21 11:40:48;;;;;;;;;8.25;7.00;;;;;9.61;71.50;99544.69;6186114;23;45280;-84
2022/11/21 11:50:09;;;;;;;;;8.25;5.50;;;;;9.60;71.49;99513.22;6188517;23;45307;-84
2022/11/21 11:55:34;;;;;;;;;12.00;7.25;;;;;9.53;71.76;99449.41;6165131;23;45256;-83
2022/11/21 11:58:17;;;;;;;;;11.50;7.75;;;;;9.51;71.75;99430.16;6159579;23;48005;-83
2022/11/21 12:01:15;;;;;;;;;10.00;7.50;;;;;9.58;71.75;99438.81;6186821;23;45390;-83
2022/11/21 12:04:11;;;;;;;;;7.25;7.25;;;;;9.63;71.91;99419.41;6186832;23;45193;-83
2022/11/21 12:06:56;;;;;;;;;10.50;7.50;;;;;9.71;71.92;99421.88;6186826;23;45498;-83
2022/11/21 12:09:36;;;;;;;;;7.25;7.25;;;;;9.79;71.76;99430.47;6186746;23;45388;-83
2022/11/21 12:12:08;;;;;;;;;6.75;5.00;;;;;9.86;71.69;99413.66;6160429;23;45417;-84
2022/11/21 12:18:15;;;;;;;;;6.50;3.50;;;;;9.90;71.14;99396.06;6137053;23;45269;-82
2022/11/21 12:20:58;;;;;;;;;6.25;6.00;;;;;9.89;71.38;99375.91;6158875;23;45331;-82
2022/11/21 12:23:55;;;;;;;;;9.00;7.25;;;;;9.81;70.90;99362.06;6186503;23;45221;-82
2022/11/21 12:27:05;;;;;;;;;4.50;4.50;;;;;9.88;70.93;99361.91;6155401;23;45340;-83
2022/11/21 12:29:43;;;;;;;;;8.25;6.25;;;;;9.88;70.80;99358.41;6168291;23;45426;-83
2022/11/21 12:32:20;;;;;;;;;7.75;6.50;;;;;9.81;70.95;99335.78;6159397;23;47194;-83
2022/11/21 12:35:23;;;;;;;;;3.75;3.25;;;;;9.68;70.73;99306.34;6186268;23;45410;-84
2022/11/21 12:38:16;;;;;;;;;12.75;10.00;;;;;9.91;71.11;99332.06;6186516;23;45247;-83
2022/11/21 12:40:44;;;;;;;;;7.25;7.00;;;;;9.90;71.07;99320.69;6186467;23;45089;-83
2022/11/21 12:43:30;;;;;;;;;9.75;8.75;;;;;9.84;71.33;99289.31;6186209;23;45251;-83
2022/11/21 12:46:25;;;;;;;;;6.50;6.50;;;;;9.88;71.52;99290.94;6158993;23;45546;-84
2022/11/21 12:55:01;;;;;;;;;12.00;6.25;;;;;9.83;71.98;99260.41;6186685;23;45137;-83
2022/11/21 12:57:49;;;;;;;;;6.00;6.00;;;;;9.90;71.83;99265.47;6158955;23;45473;-83
2022/11/21 13:01:02;;;;;;;;;8.75;6.00;;;;;9.91;72.07;99254.06;6186396;23;45306;-86
2022/11/21 13:04:07;;;;;;;;;5.25;4.25;;;;;9.92;71.97;99241.81;6124134;23;45725;-86
2022/11/21 13:06:39;;;;;;;;;9.50;5.75;;;;;9.80;71.94;99200.03;6156397;23;46940;-88
2022/11/21 13:09:31;;;;;;;;;5.25;5.00;;;;;9.85;71.73;99203.41;6159684;23;45321;-88
2022/11/21 13:12:05;;;;;;;;;4.75;4.75;;;;;9.70;71.97;99159.97;6158926;23;45257;-84
2022/11/21 13:14:36;;;;;;;;;7.50;6.25;;;;;9.82;72.07;99164.06;6157248;23;45359;-85
2022/11/21 13:17:24;;;;;;;;;9.75;4.00;;;;;9.63;71.98;99108.53;6158389;23;47219;-85
2022/11/21 13:20:21;;;;;;;;;6.00;5.75;;;;;9.70;72.28;99108.31;6182601;23;45407;-84
2022/11/21 13:22:54;;;;;;;;;7.25;4.50;;;;;9.57;72.29;99101.66;6185973;23;45336;-87
2022/11/21 13:25:58;;;;;;;;;3.00;3.00;;;;;9.50;72.77;99098.31;6158204;23;45421;-85
2022/11/21 13:28:29;;;;;;;;;5.25;4.00;;;;;9.52;72.62;99105.31;6034092;23;46623;-84
2022/11/21 13:31:01;;;;;;;;;4.75;4.75;;;;;9.60;72.90;99121.75;6034798;23;45425;-81
2022/11/21 13:33:40;;;;;;;;;4.25;4.00;;;;;9.58;72.99;99113.88;6010166;23;45371;-83
2022/11/21 13:36:09;;;;;;;;;5.00;5.00;;;;;9.54;72.94;99092.97;6082301;23;45445;-84
2022/11/21 13:38:51;;;;;;;;;5.00;4.25;;;;;9.56;73.00;99083.28;6184463;23;46262;-81
2022/11/21 13:44:32;;;;;;;;;3.75;3.50;;;;;9.66;73.16;99072.50;6184099;23;45260;-81
2022/11/21 13:47:11;;;;;;;;;5.00;4.50;;;;;9.58;73.29;99052.59;6185121;23;45557;-81
2022/11/21 13:49:45;;;;;;;;;2.75;2.75;;;;;9.69;73.15;99061.03;6156924;23;45637;-84
2022/11/21 13:52:58;;;;;;;;;5.25;4.25;;;;;9.69;73.12;99069.78;6184493;23;45500;-81
2022/11/21 13:55:44;;;;;;;;;8.50;4.75;;;;;9.72;73.24;99064.44;6034478;23;45417;-82
2022/11/21 13:58:39;;;;;;;;;9.75;6.00;;;;;9.75;73.01;99058.25;6184429;23;45516;-81
2022/11/21 14:01:43;;;;;;;;;14.25;11.00;;;;;9.74;73.26;99055.69;6184370;23;45642;-82
2022/11/21 14:04:23;;;;;;;;;6.00;5.00;;;;;9.70;73.16;99031.22;6157994;23;45440;-82
2022/11/21 14:06:51;;;;;;;;;4.25;3.75;;;;;9.71;73.34;99020.69;6157836;23;45297;-82
2022/11/21 14:09:19;;;;;;;;;3.00;3.00;;;;;9.71;73.35;99004.91;6184431;23;45370;-82
2022/11/21 14:11:51;;;;;;;;;4.50;4.00;;;;;9.67;73.44;98997.16;6156534;23;46953;-83
2022/11/21 14:14:28;;;;;;;;;7.25;3.75;;;;;9.69;73.31;99003.25;6185047;23;45342;-83
2022/11/21 14:17:24;;;;;;;;;4.25;3.50;;;;;9.61;73.41;98997.34;6182881;23;45333;-83
2022/11/21 14:19:53;;;;;;;;;2.50;2.50;;;;;9.57;73.33;98979.94;6181720;23;45519;-81
2022/11/21 14:22:34;;;;;;;;;4.00;3.00;;;;;9.60;73.58;98993.00;6185095;23;45988;-81
2022/11/21 14:25:00;;;;;;;;;4.25;3.25;;;;;9.54;73.90;98980.03;6184507;23;45377;-81
2022/11/21 14:27:31;;;;;;;;;4.00;4.00;;;;;9.43;73.71;98957.53;6184352;23;45341;-81
2022/11/21 14:29:57;;;;;;;;;5.00;5.00;;;;;9.46;74.25;98964.47;6184353;23;45493;-84
2022/11/21 14:32:28;;;;;;;;;4.00;4.00;;;;;9.42;74.34;98945.31;6157184;23;47174;-81
2022/11/21 14:35:08;;;;;;;;;3.75;3.75;;;;;9.39;74.34;98920.91;6184521;23;45250;-81
2022/11/21 14:37:36;;;;;;;;;1.00;1.00;;;;;9.38;74.42;98906.03;6182662;23;45272;-81
2022/11/21 14:40:04;;;;;;;;;4.25;3.00;;;;;9.26;74.67;98875.75;6183864;23;45434;-81
2022/11/21 14:42:36;;;;;;;;;2.50;2.50;;;;;9.28;74.89;98898.44;6157128;23;47225;-81
2022/11/21 14:45:21;;;;;;;;;6.00;4.75;;;;;9.29;74.82;98917.69;6156823;23;45211;-81